createdAt,value
2022-11-07T00:00:26.782Z,73.70
2022-11-07T00:02:55.304Z,73.50
2022-11-07T00:05:24.809Z,74.30
2022-11-07T00:07:53.239Z,73.40
2022-11-07T00:10:21.483Z,74.70
2022-11-07T00:12:49.953Z,74.20
2022-11-07T00:15:18.275Z,74.20
2022-11-07T00:17:47.602Z,74.20
2022-11-07T00:20:15.928Z,74.80
2022-11-07T00:22:45.448Z,73.80
2022-11-07T00:25:13.621Z,73.90
2022-11-07T00:27:41.916Z,73.20
2022-11-07T00:30:10.751Z,73.20
2022-11-07T00:32:38.870Z,72.70
2022-11-07T00:35:07.531Z,73.80
2022-11-07T00:37:35.735Z,73.00
2022-11-07T00:40:06.267Z,73.20
2022-11-07T00:42:34.499Z,73.20
2022-11-07T00:45:04.065Z,72.90
2022-11-07T00:47:32.314Z,72.90
2022-11-07T00:50:00.598Z,73.10
2022-11-07T00:52:28.946Z,73.00
2022-11-07T00:54:57.173Z,72.90
2022-11-07T00:57:26.760Z,72.80
2022-11-07T00:59:55.224Z,72.70
2022-11-07T01:02:23.631Z,72.30
2022-11-07T01:05:09.246Z,72.40
2022-11-07T01:07:38.032Z,72.60
2022-11-07T01:10:08.153Z,72.80
2022-11-07T01:12:38.120Z,73.10
2022-11-07T01:15:06.954Z,73.60
2022-11-07T01:17:35.127Z,74.40
2022-11-07T01:20:03.702Z,73.90
2022-11-07T01:22:31.838Z,73.00
2022-11-07T01:25:00.002Z,73.00
2022-11-07T01:27:28.126Z,73.60
2022-11-07T01:29:57.719Z,72.50
2022-11-07T01:32:25.968Z,72.90
2022-11-07T01:34:54.367Z,72.00
2022-11-07T01:37:22.505Z,71.70
2022-11-07T01:39:51.840Z,71.80
2022-11-07T01:42:20.200Z,71.00
2022-11-07T01:44:55.108Z,70.70
2022-11-07T01:47:27.790Z,70.50
2022-11-07T01:49:56.686Z,70.20
2022-11-07T01:52:28.165Z,70.30
2022-11-07T01:55:02.042Z,70.30
2022-11-07T01:57:34.486Z,70.60
2022-11-07T02:00:06.137Z,70.40
2022-11-07T02:02:37.194Z,70.60
2022-11-07T02:05:07.967Z,70.50
2022-11-07T02:07:37.113Z,70.60
2022-11-07T02:10:06.360Z,71.10
2022-11-07T02:12:34.573Z,71.40
2022-11-07T02:15:03.153Z,71.50
2022-11-07T02:17:31.609Z,71.50
2022-11-07T02:20:01.133Z,71.80
2022-11-07T02:22:36.767Z,73.40
2022-11-07T02:25:09.248Z,72.10
2022-11-07T02:27:39.358Z,72.30
2022-11-07T02:30:10.712Z,72.80
2022-11-07T02:32:39.286Z,72.40
2022-11-07T02:35:29.155Z,71.80
2022-11-07T02:37:57.533Z,71.30
2022-11-07T02:40:28.825Z,71.00
2022-11-07T02:42:57.335Z,71.20
2022-11-07T02:45:28.726Z,71.70
2022-11-07T02:47:57.048Z,72.30
2022-11-07T02:50:25.587Z,72.40
2022-11-07T02:52:53.951Z,72.00
2022-11-07T02:55:22.303Z,72.10
2022-11-07T02:57:51.956Z,72.20
2022-11-07T03:00:20.153Z,72.20
2022-11-07T03:02:48.349Z,72.70
2022-11-07T03:05:17.736Z,73.10
2022-11-07T03:07:47.466Z,72.80
2022-11-07T03:10:17.138Z,73.00
2022-11-07T03:12:45.577Z,72.60
2022-11-07T03:15:16.141Z,73.00
2022-11-07T03:17:45.390Z,73.30
2022-11-07T03:20:13.918Z,73.00
2022-11-07T03:22:42.201Z,73.00
2022-11-07T03:25:10.835Z,72.70
2022-11-07T03:27:47.401Z,73.00
2022-11-07T03:30:17.697Z,73.20
2022-11-07T03:32:47.156Z,73.00
2022-11-07T03:35:15.522Z,73.10
2022-11-07T03:37:47.237Z,73.40
2022-11-07T03:40:15.808Z,73.50
2022-11-07T03:42:45.207Z,73.40
2022-11-07T03:45:15.445Z,73.60
2022-11-07T03:47:47.284Z,74.20
2022-11-07T03:50:18.663Z,73.40
2022-11-07T03:52:47.670Z,73.60
2022-11-07T03:55:18.274Z,73.80
2022-11-07T03:57:46.952Z,74.10
2022-11-07T04:00:16.178Z,74.00
2022-11-07T04:02:45.847Z,74.00
2022-11-07T04:05:14.093Z,74.20
2022-11-07T04:07:42.258Z,74.30
2022-11-07T04:10:10.915Z,74.60
2022-11-07T04:12:56.377Z,74.80
2022-11-07T04:15:41.786Z,75.40
2022-11-07T04:18:11.640Z,75.00
2022-11-07T04:20:39.981Z,75.10
2022-11-07T04:23:08.331Z,75.30
2022-11-07T04:25:53.605Z,75.00
2022-11-07T04:28:21.798Z,75.40
2022-11-07T04:30:49.936Z,75.30
2022-11-07T04:33:19.944Z,75.40
2022-11-07T04:35:48.139Z,75.30
2022-11-07T04:38:16.398Z,75.00
2022-11-07T04:40:44.537Z,75.20
2022-11-07T04:43:13.043Z,75.70
2022-11-07T04:45:41.352Z,75.00
2022-11-07T04:48:10.836Z,75.00
2022-11-07T04:50:42.051Z,75.10
2022-11-07T04:53:13.374Z,75.30
2022-11-07T04:55:42.122Z,75.40
2022-11-07T04:58:10.511Z,75.60
2022-11-07T05:00:38.720Z,76.50
2022-11-07T05:03:06.941Z,75.90
2022-11-07T05:05:35.320Z,76.00
2022-11-07T05:08:05.338Z,76.50
2022-11-07T05:10:33.601Z,76.50
2022-11-07T05:13:01.801Z,76.40
2022-11-07T05:15:30.209Z,76.20
2022-11-07T05:17:58.475Z,76.50
2022-11-07T05:20:29.810Z,76.30
2022-11-07T05:23:15.331Z,77.30
2022-11-07T05:25:47.159Z,76.00
2022-11-07T05:28:16.954Z,76.00
2022-11-07T05:30:46.449Z,75.50
2022-11-07T05:33:17.422Z,76.40
2022-11-07T05:35:46.710Z,75.70
2022-11-07T05:38:15.113Z,75.50
2022-11-07T05:40:43.540Z,75.80
2022-11-07T05:43:15.830Z,75.20
2022-11-07T05:45:44.550Z,75.20
2022-11-07T05:48:14.585Z,75.30
2022-11-07T05:50:43.318Z,75.30
2022-11-07T05:53:12.183Z,75.20
2022-11-07T05:55:40.565Z,75.20
2022-11-07T05:58:10.451Z,75.10
2022-11-07T06:00:40.521Z,75.80
2022-11-07T06:03:09.886Z,75.80
2022-11-07T06:05:39.236Z,75.40
2022-11-07T06:08:08.202Z,74.80
2022-11-07T06:10:37.297Z,74.80
2022-11-07T06:13:08.513Z,74.80
2022-11-07T06:15:39.457Z,75.00
2022-11-07T06:18:09.634Z,74.90
2022-11-07T06:20:37.949Z,74.60
2022-11-07T06:23:07.611Z,74.70
2022-11-07T06:25:37.063Z,74.80
2022-11-07T06:28:07.334Z,74.60
2022-11-07T06:30:36.131Z,74.20
2022-11-07T06:33:07.199Z,74.10
2022-11-07T06:35:36.069Z,74.20
2022-11-07T06:38:04.850Z,73.70
2022-11-07T06:40:33.286Z,74.10
2022-11-07T06:43:07.159Z,73.90
2022-11-07T06:45:36.358Z,74.30
2022-11-07T06:48:06.165Z,73.80
2022-11-07T06:50:34.869Z,74.30
2022-11-07T06:53:03.964Z,73.90
2022-11-07T06:55:32.103Z,73.30
2022-11-07T06:58:01.169Z,73.20
2022-11-07T07:00:29.570Z,73.00
2022-11-07T07:02:59.086Z,73.40
2022-11-07T07:05:29.066Z,73.10
2022-11-07T07:07:57.266Z,72.80
2022-11-07T07:10:26.287Z,72.80
2022-11-07T07:12:55.201Z,72.50
2022-11-07T07:15:23.562Z,72.90
2022-11-07T07:17:51.716Z,73.00
2022-11-07T07:20:20.005Z,72.90
2022-11-07T07:22:56.902Z,72.80
2022-11-07T07:25:28.019Z,72.60
2022-11-07T07:27:56.192Z,72.80
2022-11-07T07:30:24.349Z,72.70
2022-11-07T07:32:52.519Z,72.50
2022-11-07T07:35:21.934Z,72.40
2022-11-07T07:38:03.837Z,71.70
2022-11-07T07:40:32.030Z,72.20
2022-11-07T07:43:00.305Z,72.00
2022-11-07T07:45:28.773Z,71.90
2022-11-07T07:48:02.029Z,71.20
2022-11-07T07:50:30.379Z,70.70
2022-11-07T07:53:01.570Z,70.40
2022-11-07T07:55:32.962Z,70.10
2022-11-07T07:58:01.026Z,69.00
2022-11-07T08:00:29.177Z,69.30
2022-11-07T08:03:01.965Z,69.80
2022-11-07T08:05:30.255Z,69.60
2022-11-07T08:07:59.912Z,68.70
2022-11-07T08:10:41.658Z,68.80
2022-11-07T08:13:11.079Z,69.20
2022-11-07T08:15:39.344Z,68.10
2022-11-07T08:18:07.695Z,67.90
2022-11-07T08:20:35.912Z,67.80
2022-11-07T08:23:12.992Z,67.50
2022-11-07T08:25:44.784Z,67.20
2022-11-07T08:28:13.178Z,66.80
2022-11-07T08:30:41.349Z,67.50
2022-11-07T08:33:09.668Z,66.90
2022-11-07T08:35:42.343Z,66.70
2022-11-07T08:38:12.600Z,65.70
2022-11-07T08:40:40.792Z,65.80
2022-11-07T08:43:09.212Z,65.30
2022-11-07T08:45:37.669Z,65.10
2022-11-07T08:48:06.234Z,66.10
2022-11-07T08:50:34.656Z,65.70
2022-11-07T08:53:03.413Z,65.00
2022-11-07T08:55:33.346Z,65.10
2022-11-07T08:58:02.143Z,65.50
2022-11-07T09:00:31.068Z,65.50
2022-11-07T09:05:51.823Z,66.40
2022-11-07T09:08:20.843Z,65.70
2022-11-07T09:10:50.593Z,65.80
2022-11-07T09:13:20.730Z,65.20
2022-11-07T09:15:51.523Z,65.70
2022-11-07T09:18:20.718Z,65.50
2022-11-07T09:20:48.899Z,66.10
2022-11-07T09:23:17.373Z,66.30
2022-11-07T09:25:46.150Z,65.40
2022-11-07T09:28:16.565Z,66.00
2022-11-07T09:30:44.819Z,65.00
2022-11-07T09:33:13.375Z,65.30
2022-11-07T09:35:41.758Z,65.30
2022-11-07T09:38:10.370Z,65.50
2022-11-07T09:40:48.548Z,64.90
2022-11-07T09:43:39.997Z,65.10
2022-11-07T09:46:17.535Z,65.70
2022-11-07T09:48:51.759Z,65.50
2022-11-07T09:51:27.181Z,65.40
2022-11-07T09:53:59.854Z,65.30
2022-11-07T09:56:30.595Z,65.20
2022-11-07T09:59:11.061Z,65.10
2022-11-07T10:01:42.658Z,65.20
2022-11-07T10:04:25.750Z,63.60
2022-11-07T10:06:59.861Z,63.60
2022-11-07T10:09:36.923Z,63.30
2022-11-07T10:12:19.507Z,62.70
2022-11-07T10:14:58.117Z,62.80
2022-11-07T10:17:35.451Z,63.40
2022-11-07T10:20:24.283Z,61.40
2022-11-07T10:23:04.535Z,60.80
2022-11-07T10:25:40.594Z,61.50
2022-11-07T10:28:17.610Z,61.80
2022-11-07T10:30:49.876Z,61.70
2022-11-07T10:33:38.399Z,62.10
2022-11-07T10:36:16.254Z,62.50
2022-11-07T10:38:45.098Z,62.20
2022-11-07T10:41:17.630Z,61.90
2022-11-07T10:43:50.031Z,63.20
2022-11-07T10:46:22.871Z,62.50
2022-11-07T10:48:56.362Z,61.70
2022-11-07T10:51:38.089Z,61.50
2022-11-07T10:54:06.902Z,60.30
2022-11-07T10:56:45.509Z,60.20
2022-11-07T10:59:15.096Z,61.00
2022-11-07T11:01:51.388Z,59.80
2022-11-07T11:04:23.407Z,59.40
2022-11-07T11:06:58.510Z,59.50
2022-11-07T11:09:31.087Z,59.10
2022-11-07T11:11:59.883Z,59.80
2022-11-07T11:14:28.055Z,59.30
2022-11-07T11:16:57.830Z,58.40
2022-11-07T11:19:28.452Z,58.60
2022-11-07T11:21:59.478Z,59.10
2022-11-07T11:24:35.641Z,59.00
2022-11-07T11:27:11.351Z,59.20
2022-11-07T11:29:46.105Z,58.90
2022-11-07T11:32:22.314Z,60.10
2022-11-07T11:34:57.413Z,58.30
2022-11-07T11:37:27.461Z,59.30
2022-11-07T11:40:14.155Z,58.90
2022-11-07T11:42:52.546Z,58.50
2022-11-07T11:45:30.501Z,58.70
2022-11-07T11:48:06.719Z,59.30
2022-11-07T11:50:43.342Z,58.70
2022-11-07T11:53:16.724Z,57.80
2022-11-07T11:55:54.374Z,57.20
2022-11-07T11:58:41.458Z,57.80
2022-11-07T12:01:16.808Z,57.40
2022-11-07T12:04:08.170Z,56.60
2022-11-07T12:06:40.423Z,57.40
2022-11-07T12:09:27.956Z,56.40
2022-11-07T12:12:05.785Z,57.20
2022-11-07T12:15:01.355Z,56.20
2022-11-07T12:17:38.525Z,56.80
2022-11-07T12:20:18.033Z,56.70
2022-11-07T12:23:04.388Z,57.20
2022-11-07T12:25:42.155Z,56.90
2022-11-07T12:28:29.027Z,56.70
2022-11-07T12:31:08.925Z,57.20
2022-11-07T12:33:46.533Z,57.80
2022-11-07T12:36:30.845Z,57.10
2022-11-07T12:39:15.001Z,57.00
2022-11-07T12:41:51.844Z,57.30
2022-11-07T12:44:41.073Z,57.50
2022-11-07T12:47:16.947Z,56.90
2022-11-07T12:50:09.778Z,57.90
2022-11-07T12:52:53.922Z,56.70
2022-11-07T12:55:26.914Z,56.70
2022-11-07T12:57:56.403Z,57.00
2022-11-07T13:00:29.840Z,56.20
2022-11-07T13:03:19.963Z,57.10
2022-11-07T13:06:03.933Z,55.40
2022-11-07T13:08:38.171Z,54.40
2022-11-07T13:11:14.765Z,53.80
2022-11-07T13:14:19.625Z,54.50
2022-11-07T13:16:54.639Z,54.70
2022-11-07T13:19:32.624Z,55.00
2022-11-07T13:22:03.793Z,55.70
2022-11-07T13:24:36.431Z,55.70
2022-11-07T13:27:16.438Z,55.60
2022-11-07T13:29:45.281Z,55.30
2022-11-07T13:32:14.892Z,55.90
2022-11-07T13:34:57.827Z,56.70
2022-11-07T13:37:30.806Z,57.20
2022-11-07T13:40:05.914Z,57.20
2022-11-07T13:42:35.995Z,56.90
2022-11-07T13:45:26.189Z,57.20
2022-11-07T13:47:57.093Z,57.40
2022-11-07T13:50:33.329Z,57.10
2022-11-07T13:53:05.625Z,56.90
2022-11-07T13:55:45.152Z,56.70
2022-11-07T13:58:16.612Z,56.80
2022-11-07T14:00:44.923Z,56.90
2022-11-07T14:03:25.572Z,56.70
2022-11-07T14:05:55.523Z,56.80
2022-11-07T14:08:27.239Z,56.60
2022-11-07T14:10:56.897Z,56.80
2022-11-07T14:13:29.061Z,56.50
2022-11-07T14:15:59.964Z,56.90
2022-11-07T14:18:32.834Z,56.90
2022-11-07T14:21:01.452Z,56.60
2022-11-07T14:23:32.369Z,56.90
2022-11-07T14:26:05.191Z,56.80
2022-11-07T14:28:36.846Z,57.20
2022-11-07T14:31:09.578Z,56.50
2022-11-07T14:33:37.945Z,57.50
2022-11-07T14:36:07.338Z,57.40
2022-11-07T14:38:36.482Z,56.90
2022-11-07T14:41:06.392Z,57.20
2022-11-07T14:43:35.630Z,57.00
2022-11-07T14:46:14.060Z,57.00
2022-11-07T14:48:44.453Z,57.00
2022-11-07T14:51:14.576Z,57.30
2022-11-07T14:53:52.366Z,57.20
2022-11-07T14:56:25.903Z,58.40
2022-11-07T14:58:54.864Z,58.00
2022-11-07T15:01:27.918Z,57.50
2022-11-07T15:03:58.095Z,57.60
2022-11-07T15:06:33.164Z,57.70
2022-11-07T15:09:03.642Z,57.80
2022-11-07T15:11:35.490Z,57.30
2022-11-07T15:14:07.662Z,57.00
2022-11-07T15:16:39.241Z,57.20
2022-11-07T15:19:11.090Z,57.40
2022-11-07T15:21:51.904Z,57.50
2022-11-07T15:24:35.389Z,57.70
2022-11-07T15:27:07.407Z,57.70
2022-11-07T15:29:37.494Z,58.00
2022-11-07T15:32:15.127Z,58.30
2022-11-07T15:37:32.158Z,58.10
2022-11-07T15:40:00.461Z,58.40
2022-11-07T15:42:30.019Z,58.90
2022-11-07T15:44:58.106Z,58.90
2022-11-07T15:47:26.437Z,59.30
2022-11-07T15:49:55.624Z,59.30
2022-11-07T15:52:24.334Z,59.10
2022-11-07T15:54:52.443Z,59.10
2022-11-07T15:57:21.196Z,59.00
2022-11-07T15:59:50.734Z,59.10
2022-11-07T16:02:19.352Z,58.50
2022-11-07T16:04:47.714Z,58.70
2022-11-07T16:07:18.754Z,58.50
2022-11-07T16:09:48.873Z,57.80
2022-11-07T16:12:19.015Z,57.80
2022-11-07T16:14:47.204Z,58.50
2022-11-07T16:17:18.566Z,58.00
2022-11-07T16:19:47.307Z,57.90
2022-11-07T16:22:16.790Z,57.90
2022-11-07T16:24:44.937Z,57.80
2022-11-07T16:27:18.375Z,57.80
2022-11-07T16:29:46.652Z,57.60
2022-11-07T16:32:18.613Z,57.60
2022-11-07T16:34:48.023Z,57.10
2022-11-07T16:37:16.147Z,57.50
2022-11-07T16:39:44.439Z,57.50
2022-11-07T16:42:15.719Z,57.60
2022-11-07T16:44:44.130Z,57.30
2022-11-07T16:47:16.871Z,58.00
2022-11-07T16:49:45.010Z,57.10
2022-11-07T16:52:16.085Z,57.70
2022-11-07T16:54:45.839Z,57.20
2022-11-07T16:57:16.714Z,57.00
2022-11-07T16:59:45.877Z,56.80
2022-11-07T17:02:21.620Z,56.60
2022-11-07T17:04:50.941Z,56.20
2022-11-07T17:07:20.081Z,57.30
2022-11-07T17:09:48.646Z,57.40
2022-11-07T17:12:19.138Z,56.50
2022-11-07T17:14:47.521Z,56.40
2022-11-07T17:17:17.192Z,57.90
2022-11-07T17:19:47.138Z,57.80
2022-11-07T17:22:18.046Z,58.30
2022-11-07T17:24:47.394Z,57.80
2022-11-07T17:27:21.889Z,58.10
2022-11-07T17:29:50.568Z,57.10
2022-11-07T17:32:18.715Z,56.40
2022-11-07T17:34:59.278Z,56.90
2022-11-07T17:37:36.766Z,56.60
2022-11-07T17:40:06.672Z,56.50
2022-11-07T17:42:38.078Z,56.60
2022-11-07T17:45:08.031Z,56.70
2022-11-07T17:47:36.163Z,56.60
2022-11-07T17:50:06.513Z,56.50
2022-11-07T17:52:34.621Z,56.50
2022-11-07T17:55:02.734Z,56.50
2022-11-07T17:57:30.850Z,56.50
2022-11-07T17:59:58.902Z,56.30
2022-11-07T18:02:27.333Z,56.20
2022-11-07T18:04:55.829Z,56.40
2022-11-07T18:07:25.790Z,56.50
2022-11-07T18:09:54.865Z,56.70
2022-11-07T18:12:23.356Z,57.30
2022-11-07T18:14:51.524Z,56.60
2022-11-07T18:17:20.768Z,56.50
2022-11-07T18:19:49.490Z,56.50
2022-11-07T18:22:17.793Z,56.60
2022-11-07T18:24:47.657Z,57.00
2022-11-07T18:27:15.811Z,56.60
2022-11-07T18:29:44.290Z,56.60
2022-11-07T18:32:12.474Z,56.80
2022-11-07T18:34:40.648Z,56.90
2022-11-07T18:37:08.778Z,56.90
2022-11-07T18:39:37.318Z,57.20
2022-11-07T18:42:07.214Z,58.10
2022-11-07T18:44:35.413Z,57.80
2022-11-07T18:47:04.219Z,57.70
2022-11-07T18:49:32.455Z,57.60
2022-11-07T18:52:00.582Z,57.50
2022-11-07T18:54:29.853Z,57.30
2022-11-07T18:56:58.255Z,57.60
2022-11-07T18:59:28.402Z,58.00
2022-11-07T19:01:56.966Z,57.90
2022-11-07T19:04:25.352Z,57.90
2022-11-07T19:06:59.454Z,57.80
2022-11-07T19:09:29.967Z,57.80
2022-11-07T19:11:59.121Z,58.60
2022-11-07T19:14:30.200Z,58.60
2022-11-07T19:16:58.754Z,58.60
2022-11-07T19:19:27.000Z,58.50
2022-11-07T19:21:55.465Z,58.70
2022-11-07T19:24:23.717Z,58.40
2022-11-07T19:26:52.106Z,58.40
2022-11-07T19:29:20.439Z,58.30
2022-11-07T19:31:50.117Z,58.50
2022-11-07T19:34:19.351Z,58.50
2022-11-07T19:36:47.614Z,58.40
2022-11-07T19:39:17.332Z,59.40
2022-11-07T19:41:45.631Z,58.90
2022-11-07T19:44:13.929Z,59.90
2022-11-07T19:46:42.218Z,59.60
2022-11-07T19:49:13.206Z,60.20
2022-11-07T19:51:41.674Z,60.50
2022-11-07T19:54:11.124Z,60.90
2022-11-07T19:56:39.898Z,61.50
2022-11-07T19:59:08.002Z,62.10
2022-11-07T20:01:36.863Z,63.20
2022-11-07T20:04:05.629Z,62.80
2022-11-07T20:06:37.562Z,62.70
2022-11-07T20:09:08.108Z,62.30
2022-11-07T20:11:36.846Z,62.30
2022-11-07T20:14:05.365Z,62.50
2022-11-07T20:16:35.044Z,61.90
2022-11-07T20:19:03.562Z,61.30
2022-11-07T20:21:33.785Z,61.50
2022-11-07T20:24:05.590Z,61.30
2022-11-07T20:26:34.328Z,63.40
2022-11-07T20:29:03.160Z,62.70
2022-11-07T20:31:33.890Z,62.10
2022-11-07T20:34:04.277Z,62.70
2022-11-07T20:36:33.888Z,62.30
2022-11-07T20:39:04.447Z,62.20
2022-11-07T20:41:33.274Z,62.40
2022-11-07T20:44:04.021Z,62.10
2022-11-07T20:46:33.669Z,62.00
2022-11-07T20:49:02.945Z,63.40
2022-11-07T20:51:31.579Z,63.60
2022-11-07T20:54:00.647Z,63.10
2022-11-07T20:56:30.649Z,62.30
2022-11-07T20:58:59.541Z,62.70
2022-11-07T21:01:35.804Z,62.90
2022-11-07T21:04:05.039Z,62.50
2022-11-07T21:06:34.045Z,61.50
2022-11-07T21:09:02.993Z,61.60
2022-11-07T21:11:33.098Z,62.40
2022-11-07T21:14:01.517Z,62.20
2022-11-07T21:16:29.788Z,62.00
2022-11-07T21:18:58.438Z,62.70
2022-11-07T21:21:28.878Z,61.70
2022-11-07T21:23:58.802Z,61.60
2022-11-07T21:26:30.385Z,62.10
2022-11-07T21:29:00.846Z,67.50
2022-11-07T21:31:31.412Z,67.10
2022-11-07T21:33:59.997Z,66.20
2022-11-07T21:36:29.948Z,65.50
2022-11-07T21:38:59.868Z,64.50
2022-11-07T21:41:28.450Z,63.70
2022-11-07T21:43:59.893Z,64.70
2022-11-07T21:46:30.496Z,64.30
2022-11-07T21:49:00.302Z,64.30
2022-11-07T21:51:30.257Z,64.40
2022-11-07T21:53:59.626Z,64.80
2022-11-07T21:56:29.567Z,64.10
2022-11-07T21:59:00.891Z,64.40
2022-11-07T22:01:35.293Z,64.50
2022-11-07T22:04:07.572Z,64.40
2022-11-07T22:06:38.358Z,65.30
2022-11-07T22:09:07.966Z,65.30
2022-11-07T22:11:36.536Z,66.50
2022-11-07T22:14:06.535Z,66.70
2022-11-07T22:16:34.719Z,67.40
2022-11-07T22:19:05.191Z,67.50
2022-11-07T22:21:35.647Z,68.40
2022-11-07T22:24:03.751Z,67.30
2022-11-07T22:26:32.198Z,66.30
2022-11-07T22:29:00.419Z,66.60
2022-11-07T22:31:32.502Z,66.60
2022-11-07T22:34:01.803Z,66.10
2022-11-07T22:36:30.512Z,66.10
2022-11-07T22:38:59.733Z,66.40
2022-11-07T22:41:29.195Z,67.00
2022-11-07T22:43:58.373Z,68.10
2022-11-07T22:46:28.380Z,67.40
2022-11-07T22:48:59.650Z,67.20
2022-11-07T22:51:29.598Z,67.30
2022-11-07T22:53:59.255Z,67.50
2022-11-07T22:56:28.008Z,67.50
2022-11-07T22:58:56.631Z,68.40
2022-11-07T23:01:27.443Z,67.70
2022-11-07T23:03:57.175Z,67.70
2022-11-07T23:06:27.029Z,67.60
2022-11-07T23:08:57.117Z,67.60
2022-11-07T23:14:18.070Z,67.70
2022-11-07T23:16:47.880Z,67.60
2022-11-07T23:19:19.673Z,67.70
2022-11-07T23:21:48.970Z,68.20
2022-11-07T23:24:17.773Z,68.00
2022-11-07T23:26:46.138Z,67.10
2022-11-07T23:29:16.282Z,67.00
2022-11-07T23:31:47.370Z,66.80
2022-11-07T23:34:18.074Z,67.00
2022-11-07T23:36:46.491Z,66.90
2022-11-07T23:39:16.545Z,67.10
2022-11-07T23:41:45.333Z,67.10
2022-11-07T23:44:15.306Z,67.30
2022-11-07T23:47:01.490Z,67.30
2022-11-07T23:49:48.566Z,68.50
2022-11-07T23:52:17.243Z,67.60
2022-11-07T23:55:02.885Z,72.10
2022-11-07T23:57:33.714Z,71.90
